Time;durP1;ratioP1;P1;durP2;ratioP2;P2;SDS_P1;SDS_P2;PMS_P1;PMS_P2;Temp;Humidity;BMP_temperature;BMP_pressure;BME280_temperature;BME280_humidity;BME280_pressure;Samples;Min_cycle;Max_cycle;Signal;HPM_P1;HPM_P2
2022/05/14 00:01:17;;;;;;;6.93;3.33;;;14.70;99.90;;;;;;5078591;28;20630;-73
2022/05/14 00:03:44;;;;;;;8.43;3.45;;;14.70;99.90;;;;;;5110902;28;20225;-73
2022/05/14 00:06:15;;;;;;;5.50;3.30;;;14.60;99.90;;;;;;5111052;28;20202;-73
2022/05/14 00:08:40;;;;;;;6.53;3.10;;;14.70;99.90;;;;;;5110048;28;20186;-71
2022/05/14 00:13:51;;;;;;;7.85;3.45;;;14.60;99.90;;;;;;5116248;28;20255;-70
2022/05/14 00:16:18;;;;;;;9.00;3.60;;;14.60;99.90;;;;;;5105900;28;20203;-71
2022/05/14 00:18:43;;;;;;;11.88;4.93;;;14.60;99.90;;;;;;5101510;28;20216;-73
2022/05/14 00:21:10;;;;;;;6.15;2.97;;;14.70;99.90;;;;;;5104654;28;20201;-73
2022/05/14 00:23:36;;;;;;;6.63;3.58;;;14.70;99.90;;;;;;5103209;28;20181;-73
2022/05/14 00:26:02;;;;;;;9.38;4.18;;;14.80;99.90;;;;;;5104187;28;20187;-73
2022/05/14 00:28:28;;;;;;;14.13;6.95;;;14.80;99.90;;;;;;5104156;28;20206;-74
2022/05/14 00:30:54;;;;;;;14.25;4.20;;;14.80;99.90;;;;;;5106563;28;20206;-73
2022/05/14 00:33:19;;;;;;;7.90;4.05;;;14.80;99.90;;;;;;5090380;28;20638;-73
2022/05/14 00:35:45;;;;;;;8.98;3.50;;;14.80;99.90;;;;;;5106002;28;20193;-73
2022/05/14 00:38:10;;;;;;;5.53;3.67;;;14.70;99.90;;;;;;5108095;28;20240;-73
2022/05/14 00:40:41;;;;;;;6.95;3.75;;;14.70;99.90;;;;;;5119821;27;20213;-73
2022/05/14 00:43:08;;;;;;;3.50;3.13;;;14.70;99.90;;;;;;5105264;28;20197;-74
2022/05/14 00:45:37;;;;;;;5.25;3.80;;;14.70;99.90;;;;;;5107323;28;20202;-72
2022/05/14 00:48:03;;;;;;;9.18;4.45;;;14.70;99.90;;;;;;5105410;28;20288;-73
2022/05/14 00:50:38;;;;;;;7.38;3.65;;;14.60;99.90;;;;;;5105184;27;20185;-73
2022/05/14 00:53:16;;;;;;;6.82;3.47;;;14.60;99.90;;;;;;5116993;27;20224;-73
2022/05/14 00:55:44;;;;;;;7.05;3.70;;;14.60;99.90;;;;;;5116197;27;20215;-73
2022/05/14 00:58:13;;;;;;;5.47;3.30;;;14.60;99.90;;;;;;5115575;27;20208;-73
2022/05/14 01:00:39;;;;;;;7.85;4.15;;;14.60;99.90;;;;;;5132809;27;20681;-73
2022/05/14 01:03:05;;;;;;;6.78;3.67;;;14.70;99.90;;;;;;5114265;28;20288;-73
2022/05/14 01:05:32;;;;;;;7.68;3.78;;;14.70;99.90;;;;;;5124684;27;20165;-73
2022/05/14 01:08:01;;;;;;;8.10;3.45;;;14.80;99.90;;;;;;5116207;27;20212;-73
2022/05/14 01:10:33;;;;;;;8.25;3.97;;;14.80;99.90;;;;;;5134670;27;20695;-72
2022/05/14 01:13:02;;;;;;;4.93;3.38;;;14.80;99.90;;;;;;5129204;27;20213;-72
2022/05/14 01:15:43;;;;;;;6.93;3.50;;;14.80;99.90;;;;;;5122771;27;20200;-73
2022/05/14 01:18:10;;;;;;;6.93;3.45;;;14.80;99.90;;;;;;5120344;27;20273;-73
2022/05/14 01:20:36;;;;;;;8.77;3.88;;;14.80;99.90;;;;;;5116127;27;20545;-73
2022/05/14 01:23:19;;;;;;;7.18;4.07;;;14.80;99.90;;;;;;5107372;28;20201;-73
2022/05/14 01:28:47;;;;;;;8.50;3.70;;;14.80;99.90;;;;;;5108913;27;20258;-71
2022/05/14 01:31:13;;;;;;;5.40;3.45;;;14.80;99.90;;;;;;5127149;27;20705;-71
2022/05/14 01:33:38;;;;;;;6.80;3.88;;;14.80;99.90;;;;;;5114618;27;20209;-73
2022/05/14 01:36:06;;;;;;;7.93;4.13;;;14.80;99.90;;;;;;5128238;27;20233;-73
2022/05/14 01:38:33;;;;;;;7.65;3.97;;;14.80;99.90;;;;;;5122425;27;20275;-73
2022/05/14 01:40:58;;;;;;;9.68;4.63;;;14.80;99.90;;;;;;5107924;27;20271;-72
2022/05/14 01:43:24;;;;;;;8.07;4.20;;;14.80;99.90;;;;;;5115182;27;20204;-73
2022/05/14 01:45:49;;;;;;;12.30;4.45;;;14.80;99.90;;;;;;5113591;28;20198;-73
2022/05/14 01:48:15;;;;;;;7.80;3.88;;;14.70;99.90;;;;;;5094189;28;20202;-73
2022/05/14 01:50:41;;;;;;;7.22;3.90;;;14.80;99.90;;;;;;5124917;27;20250;-72
2022/05/14 01:53:07;;;;;;;8.02;3.78;;;14.70;99.90;;;;;;5109521;28;20190;-73
2022/05/14 01:55:33;;;;;;;7.47;4.03;;;14.80;99.90;;;;;;5104937;27;20201;-72
2022/05/14 01:57:58;;;;;;;8.00;3.65;;;14.80;99.90;;;;;;5133589;27;20213;-72
2022/05/14 02:00:24;;;;;;;5.22;3.50;;;14.90;99.90;;;;;;5133429;27;20215;-73
2022/05/14 02:02:50;;;;;;;10.95;3.92;;;14.90;99.90;;;;;;5125281;27;20267;-73
2022/05/14 02:05:17;;;;;;;8.70;4.30;;;14.90;99.90;;;;;;5134378;27;20201;-73
2022/05/14 02:07:42;;;;;;;8.80;3.75;;;14.90;99.90;;;;;;5114653;27;20253;-71
2022/05/14 02:10:09;;;;;;;7.75;3.70;;;14.80;99.90;;;;;;5104865;28;20745;-73
2022/05/14 02:12:35;;;;;;;5.22;3.47;;;14.80;99.90;;;;;;5111419;28;20308;-74
2022/05/14 02:15:01;;;;;;;5.40;3.40;;;14.80;99.90;;;;;;5094810;28;20288;-73
2022/05/14 02:17:27;;;;;;;8.02;3.38;;;14.80;99.90;;;;;;5113353;28;20280;-74
2022/05/14 02:19:52;;;;;;;7.72;3.35;;;14.80;99.90;;;;;;5094028;28;20292;-72
2022/05/14 02:22:18;;;;;;;6.88;3.75;;;14.80;99.90;;;;;;5094173;28;20205;-73
2022/05/14 02:24:43;;;;;;;9.00;3.80;;;14.80;99.90;;;;;;5132909;27;20201;-74
2022/05/14 02:27:09;;;;;;;5.22;3.30;;;14.90;99.90;;;;;;5133122;27;20590;-74
2022/05/14 02:32:20;;;;;;;5.28;3.33;;;14.80;99.90;;;;;;5113187;28;20728;-73
2022/05/14 02:34:46;;;;;;;9.60;3.45;;;14.80;99.90;;;;;;5115959;27;20261;-73
2022/05/14 02:37:12;;;;;;;6.05;3.00;;;14.80;99.90;;;;;;5100109;28;20237;-74
2022/05/14 02:39:38;;;;;;;8.20;3.17;;;14.90;99.90;;;;;;5111958;27;20296;-74
2022/05/14 02:42:03;;;;;;;10.38;3.63;;;14.90;99.90;;;;;;5124251;27;20284;-72
2022/05/14 02:44:29;;;;;;;8.07;3.22;;;14.80;99.90;;;;;;5123420;27;20177;-73
2022/05/14 02:46:54;;;;;;;11.82;3.67;;;14.80;99.90;;;;;;5120664;27;20200;-75
2022/05/14 02:49:20;;;;;;;8.50;3.67;;;14.80;99.90;;;;;;5119688;27;20261;-73
2022/05/14 02:51:45;;;;;;;7.80;3.65;;;14.80;99.90;;;;;;5124308;27;20212;-75
2022/05/14 02:54:11;;;;;;;9.80;3.47;;;14.70;99.90;;;;;;5125685;27;20581;-74
2022/05/14 02:56:36;;;;;;;7.80;3.45;;;14.70;99.90;;;;;;5120174;27;20595;-73
2022/05/14 02:59:08;;;;;;;8.52;3.25;;;14.70;99.90;;;;;;5111659;28;20206;-74
2022/05/14 03:01:35;;;;;;;10.52;3.67;;;14.80;99.90;;;;;;5103527;27;20709;-74
2022/05/14 03:04:01;;;;;;;6.85;3.95;;;14.70;99.90;;;;;;5105615;27;20193;-75
2022/05/14 03:06:27;;;;;;;7.30;4.25;;;14.70;99.90;;;;;;5123408;27;20276;-74
2022/05/14 03:08:53;;;;;;;6.05;3.50;;;14.70;99.90;;;;;;5097654;28;20271;-73
2022/05/14 03:11:19;;;;;;;9.25;3.47;;;14.70;99.90;;;;;;5120666;27;20169;-74
2022/05/14 03:13:44;;;;;;;7.97;3.50;;;14.60;99.90;;;;;;5123287;27;20205;-73
2022/05/14 03:16:11;;;;;;;6.10;3.13;;;14.50;99.90;;;;;;5098376;28;20270;-74
2022/05/14 03:18:37;;;;;;;7.22;3.60;;;14.50;99.90;;;;;;5121271;27;20282;-74
2022/05/14 03:21:04;;;;;;;4.75;3.53;;;14.50;99.90;;;;;;5123765;27;20221;-74
2022/05/14 03:23:29;;;;;;;7.57;3.33;;;14.40;99.90;;;;;;5115319;27;20205;-74
2022/05/14 03:25:55;;;;;;;4.88;3.58;;;14.50;99.90;;;;;;5123587;27;20208;-74
2022/05/14 03:28:20;;;;;;;7.53;3.60;;;14.40;99.90;;;;;;5095644;28;20254;-74
2022/05/14 03:30:46;;;;;;;6.28;3.28;;;14.40;99.90;;;;;;5128425;27;20255;-74
2022/05/14 03:33:12;;;;;;;6.90;3.10;;;14.40;99.90;;;;;;5119649;27;20657;-74
2022/05/14 03:35:37;;;;;;;8.98;3.78;;;14.40;99.90;;;;;;5109840;28;20771;-74
2022/05/14 03:38:03;;;;;;;6.35;3.40;;;14.50;99.90;;;;;;5119291;27;20581;-73
2022/05/14 03:40:28;;;;;;;4.70;3.28;;;14.60;99.90;;;;;;5120638;28;20233;-74
2022/05/14 03:42:54;;;;;;;8.90;3.60;;;14.50;99.90;;;;;;5118723;28;20209;-73
2022/05/14 03:45:19;;;;;;;8.48;3.50;;;14.60;99.90;;;;;;5120057;28;20198;-73
2022/05/14 03:47:45;;;;;;;7.85;3.72;;;14.70;99.90;;;;;;5122846;28;20174;-73
2022/05/14 03:50:11;;;;;;;5.90;3.40;;;14.80;99.90;;;;;;5123635;28;20535;-73
2022/05/14 03:52:36;;;;;;;8.65;3.42;;;14.90;99.90;;;;;;5112489;28;20217;-73
2022/05/14 03:55:03;;;;;;;6.38;2.95;;;15.60;99.90;;;;;;5098938;28;20584;-72
2022/05/14 03:57:28;;;;;;;5.95;3.25;;;16.70;99.90;;;;;;5121953;28;20701;-74
2022/05/14 03:59:54;;;;;;;7.30;3.58;;;17.60;99.90;;;;;;5119325;28;20217;-73
2022/05/14 04:02:21;;;;;;;5.22;2.95;;;18.40;99.90;;;;;;5122163;27;20255;-74
2022/05/14 04:04:47;;;;;;;7.75;3.38;;;18.90;99.90;;;;;;5127640;27;20200;-73
2022/05/14 04:07:12;;;;;;;4.70;2.72;;;19.50;99.90;;;;;;5125769;27;20199;-74
2022/05/14 04:09:38;;;;;;;10.13;3.83;;;19.90;99.90;;;;;;5122963;27;20281;-73
2022/05/14 04:12:04;;;;;;;4.90;3.15;;;20.10;99.90;;;;;;5121530;27;20209;-73
2022/05/14 04:14:29;;;;;;;5.65;2.92;;;20.40;99.90;;;;;;5105846;28;20181;-73
2022/05/14 04:16:54;;;;;;;5.45;3.13;;;21.00;99.90;;;;;;5123785;27;20681;-74
2022/05/14 04:19:20;;;;;;;4.97;2.83;;;21.60;99.90;;;;;;5123046;27;20212;-73
2022/05/14 04:21:46;;;;;;;7.35;2.83;;;22.10;99.90;;;;;;5135720;27;20205;-73
2022/05/14 04:24:11;;;;;;;5.43;2.90;;;22.20;99.90;;;;;;5127206;27;20215;-74
2022/05/14 04:26:38;;;;;;;8.05;3.00;;;22.40;99.90;;;;;;5108633;27;20173;-74
2022/05/14 04:29:04;;;;;;;6.30;2.80;;;22.40;99.90;;;;;;5129323;27;20162;-74
2022/05/14 04:31:29;;;;;;;4.22;3.00;;;22.30;99.90;;;;;;5105954;27;20258;-74
2022/05/14 04:33:55;;;;;;;4.97;2.75;;;21.30;99.90;;;;;;5125832;27;20201;-73
2022/05/14 04:36:20;;;;;;;4.50;3.05;;;20.60;99.90;;;;;;5108673;27;20704;-72
2022/05/14 04:38:46;;;;;;;5.10;3.03;;;21.80;99.90;;;;;;5095824;28;20238;-72
2022/05/14 04:41:12;;;;;;;8.82;2.67;;;22.80;99.90;;;;;;5126341;27;20641;-73
2022/05/14 04:43:37;;;;;;;5.38;3.38;;;23.70;99.90;;;;;;5126636;27;20249;-74
2022/05/14 04:46:07;;;;;;;5.85;2.88;;;23.90;99.90;;;;;;5126767;27;20207;-73
2022/05/14 04:48:35;;;;;;;4.72;2.33;;;24.60;99.90;;;;;;5114322;27;20205;-74
2022/05/14 04:51:01;;;;;;;10.90;3.00;;;25.10;99.90;;;;;;5104743;28;20342;-72
2022/05/14 04:53:26;;;;;;;6.32;2.63;;;25.40;99.90;;;;;;5124244;27;20225;-74
2022/05/14 04:55:52;;;;;;;4.68;2.30;;;25.80;99.90;;;;;;5100536;28;20207;-74
2022/05/14 04:58:17;;;;;;;7.43;2.80;;;26.40;99.90;;;;;;5100946;27;20208;-74
2022/05/14 05:00:43;;;;;;;5.13;2.75;;;26.70;99.90;;;;;;5126517;27;20722;-74
2022/05/14 05:03:17;;;;;;;6.95;2.70;;;26.80;99.90;;;;;;5101094;28;20619;-74
2022/05/14 05:05:45;;;;;;;7.78;2.65;;;26.80;99.90;;;;;;5117285;27;20183;-72
2022/05/14 05:08:10;;;;;;;5.07;2.50;;;26.80;99.90;;;;;;5119030;27;20166;-74
2022/05/14 05:10:37;;;;;;;3.42;2.65;;;26.80;99.90;;;;;;5114100;28;20228;-74
2022/05/14 05:13:03;;;;;;;5.88;2.95;;;27.00;99.90;;;;;;5101011;28;20284;-74
2022/05/14 05:15:28;;;;;;;5.22;2.55;;;27.10;99.90;;;;;;5134766;27;20226;-75
2022/05/14 05:17:55;;;;;;;4.35;2.20;;;27.30;99.50;;;;;;5121263;27;20729;-72
2022/05/14 05:20:21;;;;;;;7.57;3.00;;;27.90;98.20;;;;;;5095678;28;20177;-71
2022/05/14 05:22:48;;;;;;;5.05;2.63;;;27.90;97.00;;;;;;5090975;27;20300;-73
2022/05/14 05:25:14;;;;;;;5.28;2.35;;;27.80;97.10;;;;;;5134553;27;20709;-71
2022/05/14 05:27:39;;;;;;;5.68;2.80;;;27.50;96.90;;;;;;5105215;27;20204;-72
2022/05/14 05:30:06;;;;;;;7.57;3.00;;;28.20;96.00;;;;;;5101375;27;20232;-74
2022/05/14 05:32:31;;;;;;;8.70;2.83;;;27.40;96.10;;;;;;5145783;22;20274;-75
2022/05/14 05:34:57;;;;;;;6.85;2.90;;;27.80;96.00;;;;;;5119205;28;20209;-76
2022/05/14 05:37:22;;;;;;;4.93;2.55;;;28.30;95.40;;;;;;5100061;28;20193;-76
2022/05/14 05:39:48;;;;;;;7.03;2.40;;;28.60;95.00;;;;;;5116727;28;20205;-76
2022/05/14 05:42:13;;;;;;;5.88;3.00;;;27.90;94.40;;;;;;5117259;28;20277;-75
2022/05/14 05:44:39;;;;;;;9.80;2.67;;;28.40;94.40;;;;;;5117707;28;20189;-76
2022/05/14 05:47:09;;;;;;;4.75;2.45;;;28.40;93.50;;;;;;5117437;28;20182;-76
2022/05/14 05:49:37;;;;;;;8.80;2.58;;;29.00;93.30;;;;;;5115052;28;20197;-76
2022/05/14 05:52:03;;;;;;;6.93;3.33;;;28.60;92.50;;;;;;5114628;28;20198;-76
2022/05/14 05:57:13;;;;;;;7.07;2.70;;;28.50;92.70;;;;;;5112961;28;20262;-76
2022/05/14 05:59:38;;;;;;;4.35;2.55;;;28.60;92.20;;;;;;5112835;28;20208;-75
2022/05/14 06:02:04;;;;;;;6.53;3.00;;;28.70;91.90;;;;;;5114427;28;20242;-76
2022/05/14 06:04:29;;;;;;;12.05;2.85;;;28.30;91.80;;;;;;5095450;28;20212;-75
2022/05/14 06:06:55;;;;;;;6.32;2.70;;;26.70;92.90;;;;;;5113479;28;20201;-76
2022/05/14 06:09:24;;;;;;;5.88;2.70;;;25.30;94.90;;;;;;5113046;28;20257;-75
2022/05/14 06:11:50;;;;;;;4.95;2.47;;;24.00;96.60;;;;;;5096539;28;20165;-74
2022/05/14 06:14:16;;;;;;;8.10;2.78;;;22.60;99.50;;;;;;5114921;28;20684;-74
2022/05/14 06:16:42;;;;;;;7.70;2.60;;;21.30;99.90;;;;;;5114268;28;20206;-74
2022/05/14 06:19:09;;;;;;;7.75;3.08;;;20.50;99.90;;;;;;5112385;28;20209;-74
2022/05/14 06:21:36;;;;;;;6.75;3.35;;;19.90;99.90;;;;;;5113993;28;20209;-75
2022/05/14 06:24:02;;;;;;;9.77;3.00;;;19.50;99.90;;;;;;5113748;28;20213;-74
2022/05/14 06:26:27;;;;;;;5.40;2.83;;;19.10;99.90;;;;;;5095270;28;20694;-74
2022/05/14 06:28:53;;;;;;;7.43;3.75;;;18.70;99.90;;;;;;5094602;28;20202;-74
2022/05/14 06:31:18;;;;;;;7.75;3.33;;;18.40;99.90;;;;;;5114270;28;20205;-74
2022/05/14 06:33:45;;;;;;;9.48;3.55;;;18.60;99.90;;;;;;5095208;28;20643;-74
2022/05/14 06:36:11;;;;;;;9.02;3.03;;;18.70;99.90;;;;;;5112220;28;20270;-75
2022/05/14 06:38:36;;;;;;;6.28;3.10;;;19.00;99.90;;;;;;5112401;28;20616;-75
2022/05/14 06:41:07;;;;;;;10.32;3.10;;;19.20;99.90;;;;;;5118296;28;20173;-74
2022/05/14 06:43:33;;;;;;;6.53;3.03;;;19.30;99.90;;;;;;5113383;28;20205;-74
2022/05/14 06:45:58;;;;;;;6.28;3.05;;;19.20;99.90;;;;;;5095833;28;20667;-74
2022/05/14 06:48:24;;;;;;;7.28;3.40;;;18.80;99.90;;;;;;5114478;28;20210;-74
2022/05/14 06:50:50;;;;;;;8.93;3.50;;;18.60;99.90;;;;;;5114528;28;20166;-75
2022/05/14 06:53:18;;;;;;;6.88;3.28;;;18.40;99.90;;;;;;5115079;28;20192;-75
2022/05/14 06:55:46;;;;;;;12.23;3.75;;;18.50;99.90;;;;;;5114589;28;20209;-75
2022/05/14 06:58:15;;;;;;;11.02;3.78;;;18.60;99.90;;;;;;5095006;28;20225;-75
2022/05/14 07:00:42;;;;;;;8.68;3.35;;;18.80;99.90;;;;;;5114361;28;20278;-74
2022/05/14 07:08:37;;;;;;;7.15;3.08;;;18.70;99.90;;;;;;5113139;28;20235;-74
2022/05/14 07:11:03;;;;;;;9.77;3.03;;;18.80;99.90;;;;;;5096315;28;20174;-74
2022/05/14 07:13:28;;;;;;;12.55;3.72;;;18.90;99.90;;;;;;5113862;28;20254;-74
2022/05/14 07:15:54;;;;;;;10.05;3.30;;;19.00;99.90;;;;;;5113340;28;20202;-74
2022/05/14 07:18:20;;;;;;;6.65;3.22;;;19.10;99.90;;;;;;5113880;28;20225;-74
2022/05/14 07:20:45;;;;;;;9.27;3.22;;;19.30;99.90;;;;;;5096027;28;20676;-74
2022/05/14 07:23:11;;;;;;;8.40;3.67;;;19.40;99.90;;;;;;5115074;28;20193;-74
2022/05/14 07:25:36;;;;;;;8.63;3.30;;;19.60;99.90;;;;;;5114603;28;20292;-75
2022/05/14 07:28:02;;;;;;;6.70;3.28;;;19.70;99.90;;;;;;5113461;28;20270;-75
2022/05/14 07:30:27;;;;;;;9.52;3.63;;;19.70;99.90;;;;;;5096218;28;20697;-75
2022/05/14 07:32:53;;;;;;;8.77;3.38;;;19.40;99.90;;;;;;5115857;28;20309;-74
2022/05/14 07:35:18;;;;;;;10.93;3.50;;;19.50;99.90;;;;;;5115130;28;20587;-75
2022/05/14 07:37:48;;;;;;;12.77;5.18;;;19.40;99.90;;;;;;5102582;28;20211;-74
2022/05/14 07:40:17;;;;;;;8.98;3.45;;;19.70;99.90;;;;;;5123832;28;20250;-75
2022/05/14 07:43:00;;;;;;;7.03;3.35;;;20.10;99.90;;;;;;5119938;28;20265;-76
2022/05/14 07:45:33;;;;;;;10.70;4.22;;;20.40;99.90;;;;;;5121770;28;20220;-75
2022/05/14 07:48:01;;;;;;;8.13;3.40;;;20.30;99.90;;;;;;5112804;28;20225;-77
2022/05/14 07:50:27;;;;;;;8.23;3.25;;;20.50;99.90;;;;;;5112112;28;20759;-73
2022/05/14 07:52:52;;;;;;;7.32;3.67;;;20.90;99.90;;;;;;5093074;28;20217;-75
2022/05/14 07:55:18;;;;;;;9.48;3.35;;;20.90;99.90;;;;;;5092944;28;20260;-74
2022/05/14 07:57:44;;;;;;;7.72;3.50;;;21.20;99.90;;;;;;5109873;28;20233;-74
2022/05/14 08:00:11;;;;;;;6.65;3.35;;;21.40;99.90;;;;;;5103610;28;20223;-77
2022/05/14 08:02:36;;;;;;;8.18;3.63;;;22.00;99.90;;;;;;5082229;28;20203;-75
2022/05/14 08:05:08;;;;;;;9.68;3.78;;;22.20;99.90;;;;;;5111290;28;20177;-74
2022/05/14 08:07:34;;;;;;;6.03;3.10;;;22.40;99.90;;;;;;5084273;28;20678;-73
2022/05/14 08:10:00;;;;;;;8.98;3.10;;;21.90;99.90;;;;;;5110538;28;20201;-72
2022/05/14 08:12:31;;;;;;;11.77;3.65;;;21.60;99.90;;;;;;5110918;28;20233;-73
2022/05/14 08:14:56;;;;;;;7.85;3.70;;;21.50;99.90;;;;;;5111175;28;20697;-75
2022/05/14 08:17:22;;;;;;;8.20;3.53;;;21.50;99.90;;;;;;5111197;28;20173;-76
2022/05/14 08:19:47;;;;;;;7.78;3.83;;;21.40;99.90;;;;;;5102302;28;20197;-77
2022/05/14 08:24:57;;;;;;;8.40;3.53;;;20.80;99.90;;;;;;5118848;28;20204;-83
2022/05/14 08:27:22;;;;;;;9.82;3.30;;;21.00;99.90;;;;;;5117256;28;20639;-78
2022/05/14 08:29:48;;;;;;;10.98;3.53;;;21.00;99.90;;;;;;5110614;28;20176;-74
2022/05/14 08:32:18;;;;;;;11.52;3.88;;;20.90;99.90;;;;;;5111509;28;20578;-74
2022/05/14 08:34:44;;;;;;;11.18;3.60;;;21.00;99.90;;;;;;5111045;28;20292;-76
2022/05/14 08:37:10;;;;;;;12.43;4.50;;;21.00;99.90;;;;;;5111087;28;20305;-77
2022/05/14 08:39:36;;;;;;;21.25;9.35;;;21.10;99.90;;;;;;5091835;28;20222;-78
2022/05/14 08:42:02;;;;;;;9.57;3.90;;;21.40;99.90;;;;;;5111626;28;20217;-76
2022/05/14 08:44:31;;;;;;;9.10;3.42;;;21.50;99.90;;;;;;5111859;28;20252;-75
2022/05/14 08:47:03;;;;;;;9.27;3.80;;;21.50;99.90;;;;;;5093346;28;20674;-74
2022/05/14 08:49:32;;;;;;;5.43;2.83;;;21.80;99.90;;;;;;5095650;28;20237;-74
2022/05/14 08:51:59;;;;;;;8.48;3.10;;;22.00;99.90;;;;;;5115230;28;20229;-72
2022/05/14 08:54:26;;;;;;;8.32;2.95;;;22.20;99.90;;;;;;5116449;28;20366;-75
2022/05/14 08:57:01;;;;;;;6.82;3.35;;;22.50;99.90;;;;;;5112620;28;20218;-74
2022/05/14 08:59:44;;;;;;;8.43;3.70;;;22.80;99.90;;;;;;5114816;28;20684;-75
2022/05/14 09:02:20;;;;;;;8.65;3.47;;;22.80;99.90;;;;;;5115097;28;20667;-73
2022/05/14 09:04:47;;;;;;;9.98;3.40;;;23.10;99.90;;;;;;5113990;28;20197;-74
2022/05/14 09:07:13;;;;;;;10.02;5.25;;;23.20;99.90;;;;;;5114134;28;20201;-74
2022/05/14 09:09:53;;;;;;;9.10;3.65;;;24.00;99.90;;;;;;5104044;28;20719;-75
2022/05/14 09:12:24;;;;;;;6.60;2.92;;;24.30;99.90;;;;;;5110549;28;20208;-75
2022/05/14 09:14:59;;;;;;;6.35;2.58;;;24.60;99.90;;;;;;5114074;28;20266;-74
2022/05/14 09:17:29;;;;;;;10.30;3.53;;;25.00;99.90;;;;;;5114321;28;20173;-74
2022/05/14 09:19:55;;;;;;;9.18;3.05;;;25.70;99.90;;;;;;5094785;28;20209;-73
2022/05/14 09:22:32;;;;;;;12.15;3.72;;;25.90;99.90;;;;;;5113534;28;20205;-72
2022/05/14 09:25:17;;;;;;;13.85;4.45;;;24.80;99.90;;;;;;5095842;28;20193;-76
2022/05/14 09:28:00;;;;;;;9.43;3.95;;;23.60;99.90;;;;;;5094216;28;20289;-73
2022/05/14 09:30:35;;;;;;;8.50;2.58;;;23.70;99.90;;;;;;5095644;28;20216;-77
2022/05/14 09:33:02;;;;;;;4.57;2.38;;;23.70;99.90;;;;;;5095719;28;20225;-77
2022/05/14 09:35:34;;;;;;;11.02;3.28;;;23.90;99.90;;;;;;5114287;28;20201;-74
2022/05/14 09:38:21;;;;;;;9.25;3.15;;;23.30;99.90;;;;;;5113536;28;20235;-77
2022/05/14 09:40:47;;;;;;;9.10;2.50;;;23.80;99.90;;;;;;5078979;28;20743;-72
2022/05/14 09:43:15;;;;;;;8.45;3.08;;;23.70;99.90;;;;;;5113743;28;20213;-76
2022/05/14 09:45:57;;;;;;;8.52;3.40;;;23.60;99.90;;;;;;5101988;28;20213;-78
2022/05/14 09:48:33;;;;;;;10.15;3.63;;;23.60;99.90;;;;;;5118918;28;20183;-74
2022/05/14 09:51:02;;;;;;;7.18;3.20;;;23.80;99.90;;;;;;5128833;28;20215;-76
2022/05/14 09:53:31;;;;;;;11.75;3.40;;;23.00;99.90;;;;;;5115464;28;20190;-78
2022/05/14 09:56:15;;;;;;;11.25;2.90;;;23.10;99.90;;;;;;5109668;28;20209;-75
2022/05/14 09:59:08;;;;;;;8.27;3.08;;;23.10;99.90;;;;;;5092017;28;20217;-75
2022/05/14 10:01:44;;;;;;;8.10;3.25;;;22.70;99.90;;;;;;5111772;28;20201;-75
2022/05/14 10:04:30;;;;;;;10.82;3.60;;;22.60;99.90;;;;;;5094997;28;20212;-75
2022/05/14 10:07:12;;;;;;;10.55;5.13;;;22.30;99.90;;;;;;5113498;28;20742;-75
2022/05/14 10:09:52;;;;;;;9.63;3.22;;;22.00;99.90;;;;;;5112677;28;20631;-75
2022/05/14 10:12:40;;;;;;;11.35;3.05;;;22.10;99.90;;;;;;5113125;28;20227;-75
2022/05/14 10:15:21;;;;;;;9.30;2.83;;;21.80;99.90;;;;;;5113289;28;20690;-75
2022/05/14 10:17:58;;;;;;;8.35;2.95;;;22.00;99.90;;;;;;5091014;28;20667;-75
2022/05/14 10:20:33;;;;;;;9.85;2.88;;;21.70;99.90;;;;;;5110296;28;20173;-75
2022/05/14 10:27:05;;;;;;;8.35;2.90;;;21.70;99.90;;;;;;5027245;28;20297;-75
2022/05/14 10:29:54;;;;;;;7.78;2.83;;;22.30;99.90;;;;;;5010341;28;20610;-74
2022/05/14 10:32:20;;;;;;;9.40;3.03;;;22.50;99.90;;;;;;5106485;28;20198;-74
2022/05/14 10:34:48;;;;;;;6.82;3.28;;;22.70;99.90;;;;;;5096343;28;20212;-74
2022/05/14 10:37:19;;;;;;;7.55;2.70;;;22.60;99.90;;;;;;5112548;28;20205;-74
2022/05/14 10:40:07;;;;;;;6.43;2.72;;;22.40;99.90;;;;;;5111839;28;20270;-74
2022/05/14 10:42:53;;;;;;;7.00;2.38;;;21.90;99.90;;;;;;5112139;28;20209;-75
2022/05/14 10:45:23;;;;;;;7.20;3.03;;;22.20;99.90;;;;;;5094169;28;20258;-75
2022/05/14 10:48:27;;;;;;;7.25;3.00;;;21.70;99.90;;;;;;5108248;28;20175;-75
2022/05/14 10:50:53;;;;;;;9.00;3.33;;;21.90;99.90;;;;;;5112247;28;20201;-75
2022/05/14 10:53:19;;;;;;;12.05;3.33;;;21.80;99.90;;;;;;5087749;28;20193;-75
2022/05/14 10:55:55;;;;;;;11.95;4.40;;;21.80;99.90;;;;;;5093463;28;20630;-74
2022/05/14 10:58:45;;;;;;;8.73;3.08;;;21.70;99.90;;;;;;5110821;28;20213;-75
2022/05/14 11:01:30;;;;;;;8.38;3.35;;;22.20;99.90;;;;;;5092201;28;20217;-79
2022/05/14 11:04:27;;;;;;;10.63;3.30;;;22.80;99.90;;;;;;5088313;28;20205;-77
2022/05/14 11:06:55;;;;;;;9.70;3.72;;;23.20;99.90;;;;;;5112398;28;20202;-78
2022/05/14 11:09:43;;;;;;;10.55;3.60;;;23.50;99.90;;;;;;5109021;28;20202;-77
2022/05/14 11:12:18;;;;;;;9.80;3.20;;;23.60;99.90;;;;;;5101484;28;20228;-74
2022/05/14 11:14:54;;;;;;;9.13;3.50;;;23.50;99.90;;;;;;5110793;28;20172;-76
2022/05/14 11:17:33;;;;;;;9.48;2.90;;;23.10;99.90;;;;;;5092916;28;20203;-74
2022/05/14 11:20:04;;;;;;;8.40;2.65;;;22.80;99.90;;;;;;5087289;28;20667;-76
2022/05/14 11:22:44;;;;;;;7.32;3.08;;;22.60;99.90;;;;;;5100840;28;20220;-73
2022/05/14 11:25:13;;;;;;;8.85;3.42;;;22.50;99.90;;;;;;5102795;28;20774;-77
2022/05/14 11:27:39;;;;;;;10.05;3.00;;;22.60;99.90;;;;;;5100577;28;20694;-72
2022/05/14 11:30:11;;;;;;;9.73;3.55;;;22.70;99.90;;;;;;5092087;28;20296;-73
2022/05/14 11:32:51;;;;;;;10.43;3.00;;;22.70;99.90;;;;;;5101519;28;20209;-74
2022/05/14 11:35:17;;;;;;;8.88;3.63;;;22.10;99.90;;;;;;5111789;28;20226;-74
2022/05/14 11:37:50;;;;;;;8.10;3.22;;;22.20;99.90;;;;;;5110896;28;20205;-72
2022/05/14 11:40:18;;;;;;;11.52;3.63;;;22.00;99.90;;;;;;5111109;28;20209;-76
2022/05/14 11:42:46;;;;;;;7.35;3.15;;;22.10;99.90;;;;;;5111211;28;20689;-72
2022/05/14 11:45:24;;;;;;;11.98;3.22;;;22.40;99.90;;;;;;5111180;28;20205;-73
2022/05/14 11:48:02;;;;;;;12.38;4.18;;;22.30;99.90;;;;;;5111142;28;20173;-74
2022/05/14 11:50:50;;;;;;;12.10;3.67;;;22.40;99.90;;;;;;5111449;28;20609;-73
2022/05/14 11:54:00;;;;;;;8.35;2.92;;;22.60;99.90;;;;;;5111449;28;20205;-73
2022/05/14 11:56:41;;;;;;;10.27;3.65;;;23.30;99.90;;;;;;5109390;28;20281;-75
2022/05/14 11:59:19;;;;;;;12.48;4.50;;;23.60;99.90;;;;;;5111256;28;20717;-73
2022/05/14 12:01:47;;;;;;;12.52;4.82;;;23.60;99.90;;;;;;5111920;28;20209;-75
2022/05/14 12:04:28;;;;;;;10.57;3.63;;;23.30;99.90;;;;;;5093769;28;20205;-75
2022/05/14 12:07:23;;;;;;;8.98;3.33;;;23.10;99.90;;;;;;5092728;28;20207;-74
2022/05/14 12:10:34;;;;;;;10.38;4.15;;;22.90;99.90;;;;;;5101737;28;20221;-74
2022/05/14 12:13:16;;;;;;;11.60;5.28;;;22.90;99.90;;;;;;5106790;28;20266;-72
2022/05/14 12:15:49;;;;;;;12.43;3.92;;;23.00;99.90;;;;;;5100456;28;20212;-74
2022/05/14 12:18:15;;;;;;;9.30;3.10;;;22.80;99.90;;;;;;5074112;28;20300;-76
2022/05/14 12:20:43;;;;;;;12.82;5.28;;;22.70;99.90;;;;;;5103911;28;20213;-76
2022/05/14 12:23:11;;;;;;;13.35;4.75;;;22.70;99.90;;;;;;5108976;28;20273;-74
2022/05/14 12:25:43;;;;;;;11.35;3.60;;;22.90;99.90;;;;;;5113923;28;20244;-72
2022/05/14 12:28:27;;;;;;;15.68;4.43;;;22.80;99.90;;;;;;5115634;28;20212;-73
2022/05/14 12:33:40;;;;;;;8.68;3.70;;;22.80;99.90;;;;;;5114549;28;20338;-73
2022/05/14 12:36:05;;;;;;;10.55;3.58;;;22.90;99.90;;;;;;5110901;28;20713;-79
2022/05/14 12:38:34;;;;;;;12.85;3.75;;;22.80;99.90;;;;;;5099445;28;20201;-81
2022/05/14 12:41:02;;;;;;;10.88;3.80;;;22.80;99.90;;;;;;5100461;28;20162;-75
2022/05/14 12:43:29;;;;;;;10.48;4.72;;;22.90;99.90;;;;;;5096245;28;20292;-73
2022/05/14 12:46:04;;;;;;;14.63;4.78;;;22.90;99.90;;;;;;5114599;28;20206;-74
2022/05/14 12:48:31;;;;;;;9.88;3.90;;;22.70;99.90;;;;;;5095858;28;20251;-76
2022/05/14 12:50:59;;;;;;;11.40;4.05;;;22.70;99.90;;;;;;5096388;28;20604;-74
2022/05/14 12:53:43;;;;;;;9.32;3.95;;;22.90;99.90;;;;;;5096388;28;20285;-73
2022/05/14 12:56:10;;;;;;;11.73;3.80;;;22.60;99.90;;;;;;5115087;28;20242;-74
2022/05/14 12:58:38;;;;;;;12.27;3.75;;;22.50;99.90;;;;;;5115534;28;20225;-74
2022/05/14 13:01:05;;;;;;;8.13;3.75;;;22.50;99.90;;;;;;5116786;28;20205;-73
2022/05/14 13:03:39;;;;;;;9.32;3.58;;;22.80;99.90;;;;;;5102587;28;20686;-73
2022/05/14 13:06:13;;;;;;;12.50;3.65;;;23.00;99.90;;;;;;5115637;28;20216;-73
2022/05/14 13:08:45;;;;;;;10.00;3.35;;;23.10;99.90;;;;;;5114869;28;20196;-74
2022/05/14 13:11:15;;;;;;;9.50;3.75;;;23.00;99.90;;;;;;5098306;28;20174;-74
2022/05/14 13:13:45;;;;;;;9.60;4.13;;;22.90;99.90;;;;;;5115756;28;20213;-73
2022/05/14 13:16:12;;;;;;;13.57;4.07;;;22.90;99.90;;;;;;5114614;28;20351;-74
2022/05/14 13:18:49;;;;;;;10.57;3.47;;;22.60;99.90;;;;;;5116850;28;20235;-77
2022/05/14 13:21:18;;;;;;;11.15;3.70;;;22.40;99.90;;;;;;5087190;28;20244;-76
2022/05/14 13:24:01;;;;;;;6.78;2.85;;;22.00;99.90;;;;;;5104455;28;20197;-78